createdAt,value
2018-09-14T00:01:43.579Z,4.58
2018-09-14T00:04:12.460Z,4.30
2018-09-14T00:06:40.885Z,4.10
2018-09-14T00:09:12.079Z,4.45
2018-09-14T00:11:40.573Z,4.25
2018-09-14T00:14:09.160Z,3.70
2018-09-14T00:16:38.034Z,3.70
2018-09-14T00:19:06.878Z,3.98
2018-09-14T00:21:35.947Z,3.93
2018-09-14T00:24:04.410Z,3.77
2018-09-14T00:26:32.788Z,4.13
2018-09-14T00:29:01.594Z,4.20
2018-09-14T00:31:30.001Z,3.83
2018-09-14T00:33:59.170Z,4.72
2018-09-14T00:36:27.594Z,5.10
2018-09-14T00:38:56.021Z,5.07
2018-09-14T00:41:24.465Z,4.58
2018-09-14T00:43:53.390Z,4.60
2018-09-14T00:46:22.203Z,4.75
2018-09-14T00:48:50.624Z,4.42
2018-09-14T00:51:19.177Z,4.50
2018-09-14T00:53:47.981Z,4.40
2018-09-14T00:56:17.213Z,4.60
2018-09-14T00:58:47.843Z,4.30
2018-09-14T01:01:17.655Z,4.87
2018-09-14T01:03:47.334Z,4.67
2018-09-14T01:06:17.022Z,4.47
2018-09-14T01:08:46.558Z,5.25
2018-09-14T01:11:16.020Z,4.75
2018-09-14T01:13:45.507Z,4.80
2018-09-14T01:16:14.732Z,4.92
2018-09-14T01:18:44.016Z,4.33
2018-09-14T01:21:13.684Z,4.53
2018-09-14T01:23:42.894Z,4.50
2018-09-14T01:26:12.029Z,3.87
2018-09-14T01:28:41.288Z,4.40
2018-09-14T01:31:10.857Z,4.15
2018-09-14T01:33:48.352Z,4.50
2018-09-14T01:36:21.969Z,3.20
2018-09-14T01:38:51.288Z,3.87
2018-09-14T01:41:20.635Z,3.83
2018-09-14T01:43:49.497Z,3.60
2018-09-14T01:46:18.745Z,3.90
2018-09-14T01:48:48.362Z,3.40
2018-09-14T01:51:18.658Z,3.92
2018-09-14T01:53:48.317Z,3.52
2018-09-14T01:56:17.795Z,3.10
2018-09-14T01:58:47.774Z,3.35
2018-09-14T02:01:17.354Z,3.37
2018-09-14T02:03:46.540Z,3.55
2018-09-14T02:06:17.793Z,3.08
2018-09-14T02:08:47.063Z,3.17
2018-09-14T02:11:16.429Z,3.25
2018-09-14T02:13:46.090Z,3.27
2018-09-14T02:16:17.380Z,3.03
2018-09-14T02:18:46.644Z,3.15
2018-09-14T02:21:16.590Z,3.50
2018-09-14T02:23:46.161Z,3.02
2018-09-14T02:26:16.999Z,3.05
2018-09-14T02:28:47.121Z,4.28
2018-09-14T02:31:17.133Z,3.53
2018-09-14T02:33:46.846Z,3.60
2018-09-14T02:36:17.970Z,3.30
2018-09-14T02:41:36.360Z,3.30
2018-09-14T02:44:14.608Z,3.60
2018-09-14T02:46:43.771Z,3.15
2018-09-14T02:49:14.008Z,3.25
2018-09-14T02:51:49.000Z,3.23
2018-09-14T02:54:17.860Z,3.93
2018-09-14T02:56:47.234Z,4.20
2018-09-14T02:59:18.625Z,3.85
2018-09-14T03:01:49.523Z,3.67
2018-09-14T03:04:41.702Z,3.83
2018-09-14T03:07:16.271Z,3.75
2018-09-14T03:09:45.518Z,3.72
2018-09-14T03:36:14.171Z,4.57
2018-09-14T03:38:42.829Z,4.90
2018-09-14T03:41:11.238Z,5.20
2018-09-14T03:43:39.997Z,5.00
2018-09-14T03:46:08.362Z,4.70
2018-09-14T03:48:36.821Z,5.20
2018-09-14T03:51:05.346Z,5.07
2018-09-14T03:53:33.756Z,5.07
2018-09-14T03:56:02.253Z,4.80
2018-09-14T03:58:31.081Z,4.97
2018-09-14T04:00:59.549Z,5.67
2018-09-14T04:03:27.965Z,4.67
2018-09-14T04:05:56.401Z,4.87
2018-09-14T04:08:24.812Z,4.93
2018-09-14T04:10:53.278Z,5.12
2018-09-14T04:13:21.758Z,5.42
2018-09-14T04:15:50.541Z,5.53
2018-09-14T04:18:21.708Z,5.50
2018-09-14T04:20:50.932Z,5.43
2018-09-14T04:23:19.523Z,5.13
2018-09-14T04:25:48.180Z,6.60
2018-09-14T04:28:16.674Z,5.70
2018-09-14T04:30:45.097Z,6.00
2018-09-14T04:33:13.684Z,6.50
2018-09-14T04:35:42.143Z,6.55
2018-09-14T04:38:10.606Z,6.37
2018-09-14T04:40:39.101Z,6.63
2018-09-14T04:43:07.510Z,6.93
2018-09-14T04:45:35.891Z,7.00
2018-09-14T04:48:04.317Z,7.53
2018-09-14T04:50:33.190Z,9.07
2018-09-14T04:53:01.650Z,10.13
2018-09-14T04:55:30.302Z,8.33
2018-09-14T04:57:59.046Z,9.20
2018-09-14T05:00:27.593Z,9.73
2018-09-14T05:02:56.798Z,8.70
2018-09-14T05:05:26.783Z,9.43
2018-09-14T05:07:55.260Z,7.93
2018-09-14T05:10:23.711Z,8.87
2018-09-14T05:12:54.292Z,9.30
2018-09-14T05:15:23.201Z,9.18
2018-09-14T05:17:53.126Z,8.43
2018-09-14T05:20:23.371Z,8.67
2018-09-14T05:22:56.438Z,8.10
2018-09-14T05:25:25.022Z,8.57
2018-09-14T05:27:54.273Z,9.90
2018-09-14T05:30:22.848Z,9.47
2018-09-14T05:32:51.357Z,10.27
2018-09-14T05:35:19.939Z,9.68
2018-09-14T05:37:48.425Z,9.20
2018-09-14T05:40:16.990Z,9.03
2018-09-14T05:42:45.419Z,8.43
2018-09-14T05:45:14.250Z,8.08
2018-09-14T05:47:42.682Z,8.00
2018-09-14T05:50:11.130Z,7.75
2018-09-14T05:52:39.724Z,8.68
2018-09-14T05:55:08.079Z,8.15
2018-09-14T05:57:36.454Z,8.13
2018-09-14T06:00:05.125Z,8.15
2018-09-14T06:02:33.491Z,8.08
2018-09-14T06:05:01.907Z,8.43
2018-09-14T06:07:32.008Z,8.05
2018-09-14T06:10:00.884Z,8.35
2018-09-14T06:12:29.270Z,8.60
2018-09-14T06:14:57.650Z,8.00
2018-09-14T06:17:26.047Z,8.60
2018-09-14T06:19:54.855Z,8.50
2018-09-14T06:22:23.584Z,8.43
2018-09-14T06:24:52.029Z,8.93
2018-09-14T06:27:20.706Z,8.88
2018-09-14T06:29:49.093Z,8.77
2018-09-14T06:32:17.502Z,8.57
2018-09-14T06:34:45.966Z,9.17
2018-09-14T06:37:15.034Z,8.30
2018-09-14T06:39:43.365Z,7.97
2018-09-14T06:42:11.697Z,9.08
2018-09-14T06:44:40.155Z,8.40
2018-09-14T06:47:08.535Z,7.72
2018-09-14T06:49:38.968Z,6.83
2018-09-14T06:52:07.551Z,5.53
2018-09-14T06:54:36.230Z,5.80
2018-09-14T06:57:06.312Z,5.20
2018-09-14T06:59:34.715Z,5.03
2018-09-14T07:02:05.681Z,4.90
2018-09-14T07:07:09.041Z,5.00
2018-09-14T07:09:40.577Z,4.50
2018-09-14T07:12:09.140Z,4.67
2018-09-14T07:14:37.874Z,4.78
2018-09-14T07:17:06.484Z,5.20
2018-09-14T07:19:35.501Z,4.65
2018-09-14T07:22:05.895Z,5.60
2018-09-14T07:24:35.478Z,5.72
2018-09-14T07:27:08.494Z,5.85
2018-09-14T07:29:39.374Z,5.87
2018-09-14T07:32:18.633Z,6.58
2018-09-14T07:34:50.962Z,6.67
2018-09-14T07:40:42.594Z,6.77
2018-09-14T07:46:04.271Z,6.83
2018-09-14T07:48:35.039Z,6.90
2018-09-14T07:51:07.326Z,7.35
2018-09-14T08:07:32.978Z,6.50
2018-09-14T08:13:43.468Z,7.40
2018-09-14T08:16:51.406Z,6.22
2018-09-14T08:26:41.226Z,5.45
2018-09-14T08:34:40.200Z,5.92
2018-09-14T08:37:16.165Z,5.35
2018-09-14T08:40:07.616Z,6.15
2018-09-14T08:42:55.932Z,6.00
2018-09-14T08:45:37.529Z,5.17
2018-09-14T09:01:30.141Z,5.63
2018-09-14T09:03:59.167Z,6.20
2018-09-14T09:07:02.866Z,5.80
2018-09-14T09:09:46.369Z,5.80
2018-09-14T09:12:17.183Z,5.65
2018-09-14T09:14:50.753Z,5.87
2018-09-14T09:17:21.547Z,5.17
2018-09-14T09:33:19.772Z,4.70
2018-09-14T09:38:57.712Z,4.75
2018-09-14T09:41:27.676Z,5.10
2018-09-14T09:52:41.479Z,5.12
2018-09-14T09:55:21.394Z,5.03
2018-09-14T10:36:06.926Z,3.93
2018-09-14T10:38:36.370Z,3.12
2018-09-14T10:41:16.186Z,3.40
2018-09-14T10:43:45.218Z,2.67
2018-09-14T10:46:13.963Z,2.60
2018-09-14T10:48:42.807Z,3.00
2018-09-14T10:51:11.659Z,2.65
2018-09-14T10:54:16.166Z,2.40
2018-09-14T10:59:47.555Z,2.07
2018-09-14T11:18:46.325Z,1.90
2018-09-14T11:21:24.038Z,2.50
2018-09-14T11:24:00.251Z,2.17
2018-09-14T11:26:29.972Z,2.08
2018-09-14T11:29:09.455Z,2.35
2018-09-14T11:31:39.788Z,2.42
2018-09-14T11:34:08.365Z,2.70
2018-09-14T11:36:39.476Z,2.72
2018-09-14T11:52:32.582Z,1.80
2018-09-14T11:55:04.926Z,1.57
2018-09-14T11:57:33.546Z,1.80
2018-09-14T12:24:20.913Z,1.20
2018-09-14T12:26:52.434Z,1.05
2018-09-14T12:29:28.587Z,1.70
2018-09-14T12:31:58.305Z,1.35
2018-09-14T12:34:27.034Z,1.25
2018-09-14T12:36:55.658Z,1.60
2018-09-14T12:39:45.682Z,1.55
2018-09-14T12:42:15.277Z,1.45
2018-09-14T12:44:43.877Z,1.30
2018-09-14T12:47:20.790Z,1.20
2018-09-14T12:52:23.414Z,1.53
2018-09-14T12:54:52.001Z,1.37
2018-09-14T12:57:20.703Z,1.50
2018-09-14T12:59:49.938Z,1.67
2018-09-14T13:02:23.410Z,1.40
2018-09-14T13:04:53.503Z,1.50
2018-09-14T13:07:25.391Z,1.40
2018-09-14T13:23:21.839Z,1.17
2018-09-14T13:25:51.278Z,2.00
2018-09-14T13:28:20.191Z,1.20
2018-09-14T13:30:54.481Z,1.20
2018-09-14T13:33:25.082Z,1.25
2018-09-14T13:35:53.639Z,1.30
2018-09-14T13:38:22.492Z,1.35
2018-09-14T13:40:51.610Z,1.30
2018-09-14T13:43:20.924Z,1.30
2018-09-14T13:45:49.515Z,2.10
2018-09-14T13:48:17.935Z,1.32
2018-09-14T13:50:47.177Z,1.65
2018-09-14T13:53:15.693Z,1.10
2018-09-14T13:55:44.130Z,1.17
2018-09-14T13:58:12.583Z,1.40
2018-09-14T14:00:44.007Z,1.25
2018-09-14T14:03:12.554Z,1.40
2018-09-14T14:05:41.234Z,1.25
2018-09-14T14:08:09.846Z,1.00
2018-09-14T14:10:38.323Z,1.12
2018-09-14T14:13:07.137Z,0.93
2018-09-14T14:15:39.637Z,1.07
2018-09-14T14:18:09.653Z,1.15
2018-09-14T14:20:41.045Z,1.15
2018-09-14T14:23:12.445Z,1.37
2018-09-14T14:25:46.773Z,1.40
2018-09-14T14:28:16.979Z,1.10
2018-09-14T14:30:48.850Z,1.10
2018-09-14T14:33:26.079Z,1.00
2018-09-14T14:36:13.460Z,0.80
2018-09-14T14:38:49.912Z,1.10
2018-09-14T14:44:06.668Z,1.03
2018-09-14T14:49:37.272Z,1.13
2018-09-14T14:52:06.032Z,0.82
2018-09-14T14:54:35.756Z,0.98
2018-09-14T14:57:04.196Z,0.80
2018-09-14T14:59:32.813Z,1.00
2018-09-14T15:04:42.203Z,0.90
2018-09-14T15:07:11.364Z,1.27
2018-09-14T15:09:40.118Z,0.75
2018-09-14T15:14:56.586Z,1.23
2018-09-14T15:17:26.879Z,1.20
2018-09-14T15:19:55.601Z,1.10
2018-09-14T15:22:29.355Z,0.90
2018-09-14T15:25:03.759Z,0.95
2018-09-14T15:27:32.611Z,1.17
2018-09-14T15:30:01.459Z,1.15
2018-09-14T15:32:29.952Z,0.98
2018-09-14T15:34:59.255Z,1.00
2018-09-14T15:37:27.728Z,0.88
2018-09-14T15:39:56.525Z,1.02
2018-09-14T15:42:26.817Z,0.90
2018-09-14T15:44:55.566Z,1.12
2018-09-14T15:47:28.244Z,1.00
2018-09-14T15:55:12.497Z,1.40
2018-09-14T15:57:41.196Z,1.12
2018-09-14T16:00:10.079Z,1.07
2018-09-14T16:02:39.601Z,1.12
2018-09-14T16:08:01.704Z,1.00
2018-09-14T16:15:57.850Z,0.70
2018-09-14T16:18:27.576Z,1.00
2018-09-14T16:20:56.297Z,1.05
2018-09-14T16:23:29.780Z,0.95
2018-09-14T16:25:58.754Z,0.82
2018-09-14T16:28:27.742Z,1.07
2018-09-14T16:30:56.330Z,1.17
2018-09-14T16:33:27.905Z,1.45
2018-09-14T16:38:32.738Z,0.98
2018-09-14T16:44:51.956Z,0.85
2018-09-14T16:51:09.065Z,1.43
2018-09-14T16:53:38.010Z,1.17
2018-09-14T17:02:04.704Z,1.30
2018-09-14T17:04:33.388Z,1.40
2018-09-14T17:07:04.145Z,1.20
2018-09-14T17:09:35.785Z,1.90
2018-09-14T17:12:04.705Z,0.80
2018-09-14T17:14:36.425Z,1.27
2018-09-14T17:17:05.197Z,1.20
2018-09-14T17:19:34.838Z,0.90
2018-09-14T17:22:11.422Z,0.95
2018-09-14T17:25:13.742Z,0.80
2018-09-14T17:27:43.001Z,0.90
2018-09-14T17:30:13.004Z,1.10
2018-09-14T17:32:42.456Z,1.37
2018-09-14T17:35:15.970Z,1.00
2018-09-14T17:37:47.988Z,1.80
2018-09-14T17:40:18.651Z,1.80
2018-09-14T17:56:39.525Z,1.20
2018-09-14T17:59:28.940Z,1.30
2018-09-14T18:02:18.233Z,1.30
2018-09-14T18:07:49.120Z,1.50
2018-09-14T18:13:04.755Z,2.17
2018-09-14T18:16:00.277Z,1.10
2018-09-14T18:18:37.346Z,1.12
2018-09-14T18:21:07.634Z,2.50
2018-09-14T18:23:37.470Z,2.08
2018-09-14T19:00:34.205Z,1.90
2018-09-14T19:03:04.785Z,2.17
2018-09-14T19:05:36.400Z,2.10
2018-09-14T19:08:05.848Z,2.10
2018-09-14T19:10:34.514Z,2.70
2018-09-14T19:13:03.897Z,2.10
2018-09-14T19:15:35.936Z,2.75
2018-09-14T19:18:10.976Z,2.47
2018-09-14T19:20:44.217Z,2.58
2018-09-14T19:47:06.565Z,1.60
2018-09-14T20:06:13.905Z,1.40
2018-09-14T20:09:14.947Z,1.57
2018-09-14T20:11:47.745Z,1.90
2018-09-14T20:14:24.385Z,1.60
2018-09-14T20:16:54.849Z,1.92
2018-09-14T20:19:33.959Z,1.27
2018-09-14T20:22:04.472Z,1.12
2018-09-14T20:24:34.605Z,1.65
2018-09-14T20:29:42.687Z,1.87
2018-09-14T20:32:13.379Z,2.05
2018-09-14T20:34:48.690Z,2.17
2018-09-14T20:50:45.637Z,1.93
2018-09-14T20:53:26.565Z,1.50
2018-09-14T20:55:56.614Z,1.67
2018-09-14T20:58:37.910Z,1.60
2018-09-14T21:04:01.436Z,1.30
2018-09-14T21:07:00.847Z,1.45
2018-09-14T21:12:37.422Z,2.03
2018-09-14T21:15:11.355Z,1.60
2018-09-14T21:26:39.216Z,1.50
2018-09-14T21:29:11.293Z,1.67
2018-09-14T21:31:45.628Z,1.27
2018-09-14T21:34:14.895Z,1.60
2018-09-14T21:50:05.988Z,1.50
2018-09-14T21:55:18.648Z,1.47
2018-09-14T22:17:59.390Z,1.50
2018-09-14T22:20:33.150Z,1.57
2018-09-14T22:37:29.339Z,0.83
2018-09-14T22:40:13.680Z,1.10
2018-09-14T22:42:58.018Z,1.32
2018-09-14T22:45:44.692Z,1.15
2018-09-14T22:50:58.302Z,1.15
2018-09-14T22:53:26.979Z,1.57
2018-09-14T22:55:59.542Z,1.02
2018-09-14T22:58:51.050Z,1.52
2018-09-14T23:01:30.693Z,1.82
2018-09-14T23:04:05.288Z,1.12
2018-09-14T23:06:34.365Z,1.10
2018-09-14T23:11:55.951Z,1.10
2018-09-14T23:14:41.462Z,1.17
2018-09-14T23:17:37.364Z,1.30
2018-09-14T23:20:10.495Z,1.10
2018-09-14T23:25:39.965Z,1.00
2018-09-14T23:28:15.337Z,0.90
2018-09-14T23:30:49.470Z,1.22
2018-09-14T23:33:30.322Z,1.70
2018-09-14T23:36:02.190Z,1.57
2018-09-14T23:38:33.899Z,1.45
2018-09-14T23:41:06.172Z,1.40
2018-09-14T23:43:36.839Z,2.27
2018-09-14T23:46:05.726Z,1.40
2018-09-14T23:48:38.887Z,1.50
2018-09-14T23:51:28.806Z,1.65
2018-09-14T23:54:08.212Z,1.45
2018-09-14T23:56:45.139Z,1.62
2018-09-14T23:59:25.014Z,1.50
